Camp Atterbury, Indiana
Current Conditions -  °F | °C
As of 8:55 AM on Sunday 25 Jan 2015 (Local Time) from KBAK Reporting Station
Overcast Overcast  
Wind Chill: 31°   Ceiling: 6000
Heat Index: 36°   Visibility: 10mi
Dew Point: 30°   Wind: 6mph
Humidity: 81%   Direction: 160°SSE
Pressure: 29.7"   Gusts: NA
Location:  39.3642°N, 85.9645°W
Report Text: KBAK 251355Z 16005KT 10SM SCT047 OVC060 02/M01 A2970
Loading
Personal Weather Stations






























Interactive Weather Map New forecast layout! Learn more

10-Day Weather Forecast

Advertisements
Track Severe Weather on mobile